sensor_id;sensor_type;location;lat;lon;timestamp;temperature;humidity
6930;DHT22;3504;52.616;13.238;2023-04-15T00:04:01;8.42;89.95
6930;DHT22;3504;52.616;13.238;2023-04-15T00:09:02;8.38;90.08
6930;DHT22;3504;52.616;13.238;2023-04-15T00:14:03;8.38;90.31
6930;DHT22;3504;52.616;13.238;2023-04-15T00:19:03;8.40;90.22
6930;DHT22;3504;52.616;13.238;2023-04-15T00:24:05;8.43;90.13
6930;DHT22;3504;52.616;13.238;2023-04-15T00:29:05;8.45;90.06
6930;DHT22;3504;52.616;13.238;2023-04-15T00:34:06;8.43;89.95
6930;DHT22;3504;52.616;13.238;2023-04-15T00:39:06;8.46;89.95
6930;DHT22;3504;52.616;13.238;2023-04-15T00:44:07;8.46;89.88
6930;DHT22;3504;52.616;13.238;2023-04-15T00:49:08;8.46;89.72
6930;DHT22;3504;52.616;13.238;2023-04-15T00:54:09;8.43;89.67
6930;DHT22;3504;52.616;13.238;2023-04-15T00:59:10;8.38;89.82
6930;DHT22;3504;52.616;13.238;2023-04-15T01:04:10;8.42;89.94
6930;DHT22;3504;52.616;13.238;2023-04-15T01:09:11;8.46;89.69
6930;DHT22;3504;52.616;13.238;2023-04-15T01:14:13;8.45;89.61
6930;DHT22;3504;52.616;13.238;2023-04-15T01:19:15;8.43;89.54
6930;DHT22;3504;52.616;13.238;2023-04-15T01:24:17;8.46;89.45
6930;DHT22;3504;52.616;13.238;2023-04-15T01:29:18;8.45;89.52
6930;DHT22;3504;52.616;13.238;2023-04-15T01:34:21;8.45;89.52
6930;DHT22;3504;52.616;13.238;2023-04-15T01:39:22;8.45;89.49
6930;DHT22;3504;52.616;13.238;2023-04-15T01:44:22;8.52;89.45
6930;DHT22;3504;52.616;13.238;2023-04-15T01:49:23;8.46;89.55
6930;DHT22;3504;52.616;13.238;2023-04-15T01:54:23;8.49;89.48
6930;DHT22;3504;52.616;13.238;2023-04-15T01:59:25;8.49;89.54
6930;DHT22;3504;52.616;13.238;2023-04-15T02:04:28;8.53;89.49
6930;DHT22;3504;52.616;13.238;2023-04-15T02:09:28;8.57;89.28
6930;DHT22;3504;52.616;13.238;2023-04-15T02:14:29;8.59;89.18
6930;DHT22;3504;52.616;13.238;2023-04-15T02:19:30;8.60;89.11
6930;DHT22;3504;52.616;13.238;2023-04-15T02:24:30;8.60;89.23
6930;DHT22;3504;52.616;13.238;2023-04-15T02:29:31;8.57;89.22
6930;DHT22;3504;52.616;13.238;2023-04-15T02:34:32;8.60;89.36
6930;DHT22;3504;52.616;13.238;2023-04-15T02:39:33;8.56;89.25
6930;DHT22;3504;52.616;13.238;2023-04-15T02:44:33;8.54;89.53
6930;DHT22;3504;52.616;13.238;2023-04-15T02:49:37;8.53;89.60
6930;DHT22;3504;52.616;13.238;2023-04-15T02:54:38;8.53;89.56
6930;DHT22;3504;52.616;13.238;2023-04-15T02:59:39;8.52;89.67
6930;DHT22;3504;52.616;13.238;2023-04-15T03:04:39;8.53;89.78
6930;DHT22;3504;52.616;13.238;2023-04-15T03:09:40;8.54;89.66
6930;DHT22;3504;52.616;13.238;2023-04-15T03:14:41;8.50;89.80
6930;DHT22;3504;52.616;13.238;2023-04-15T03:19:43;8.52;89.79
6930;DHT22;3504;52.616;13.238;2023-04-15T03:24:44;8.54;89.76
6930;DHT22;3504;52.616;13.238;2023-04-15T03:29:44;8.54;89.77
6930;DHT22;3504;52.616;13.238;2023-04-15T03:34:47;8.54;89.77
6930;DHT22;3504;52.616;13.238;2023-04-15T03:39:47;8.52;89.87
6930;DHT22;3504;52.616;13.238;2023-04-15T03:44:48;8.53;89.86
6930;DHT22;3504;52.616;13.238;2023-04-15T03:49:48;8.54;89.99
6930;DHT22;3504;52.616;13.238;2023-04-15T03:54:49;8.57;89.99
6930;DHT22;3504;52.616;13.238;2023-04-15T03:59:49;8.56;89.98
6930;DHT22;3504;52.616;13.238;2023-04-15T04:04:50;8.57;90.12
6930;DHT22;3504;52.616;13.238;2023-04-15T04:09:50;8.61;90.06
6930;DHT22;3504;52.616;13.238;2023-04-15T04:14:51;8.60;90.21
6930;DHT22;3504;52.616;13.238;2023-04-15T04:19:51;8.60;90.30
6930;DHT22;3504;52.616;13.238;2023-04-15T04:24:52;8.61;90.24
6930;DHT22;3504;52.616;13.238;2023-04-15T04:29:52;8.61;90.29
6930;DHT22;3504;52.616;13.238;2023-04-15T04:34:53;8.64;90.22
6930;DHT22;3504;52.616;13.238;2023-04-15T04:39:53;8.66;90.34
6930;DHT22;3504;52.616;13.238;2023-04-15T04:44:54;8.69;90.21
6930;DHT22;3504;52.616;13.238;2023-04-15T04:49:55;8.70;90.27
6930;DHT22;3504;52.616;13.238;2023-04-15T04:54:55;8.69;90.31
6930;DHT22;3504;52.616;13.238;2023-04-15T04:59:56;8.73;90.30
6930;DHT22;3504;52.616;13.238;2023-04-15T05:04:57;8.76;90.37
6930;DHT22;3504;52.616;13.238;2023-04-15T05:09:57;8.74;90.32
6930;DHT22;3504;52.616;13.238;2023-04-15T05:14:58;8.79;90.21
6930;DHT22;3504;52.616;13.238;2023-04-15T05:19:58;8.80;90.17
6930;DHT22;3504;52.616;13.238;2023-04-15T05:24:59;8.87;90.21
6930;DHT22;3504;52.616;13.238;2023-04-15T05:30:00;8.89;90.07
6930;DHT22;3504;52.616;13.238;2023-04-15T05:35:00;8.96;90.13
6930;DHT22;3504;52.616;13.238;2023-04-15T05:40:01;9.00;90.06
6930;DHT22;3504;52.616;13.238;2023-04-15T05:45:01;9.07;90.08
6930;DHT22;3504;52.616;13.238;2023-04-15T05:50:05;9.14;89.88
6930;DHT22;3504;52.616;13.238;2023-04-15T05:55:06;9.21;89.91
6930;DHT22;3504;52.616;13.238;2023-04-15T06:00:07;9.25;89.84
6930;DHT22;3504;52.616;13.238;2023-04-15T06:05:11;9.34;89.63
6930;DHT22;3504;52.616;13.238;2023-04-15T06:10:11;9.45;89.57
6930;DHT22;3504;52.616;13.238;2023-04-15T06:15:12;9.55;89.33
6930;DHT22;3504;52.616;13.238;2023-04-15T06:20:13;9.65;88.96
6930;DHT22;3504;52.616;13.238;2023-04-15T06:25:14;9.74;89.23
6930;DHT22;3504;52.616;13.238;2023-04-15T06:30:14;9.86;88.84
6930;DHT22;3504;52.616;13.238;2023-04-15T06:35:15;9.96;88.24
6930;DHT22;3504;52.616;13.238;2023-04-15T06:40:15;10.10;87.85
6930;DHT22;3504;52.616;13.238;2023-04-15T06:45:16;10.35;87.93
6930;DHT22;3504;52.616;13.238;2023-04-15T06:50:17;10.41;86.72
6930;DHT22;3504;52.616;13.238;2023-04-15T06:55:17;10.41;86.50
6930;DHT22;3504;52.616;13.238;2023-04-15T07:00:18;10.52;86.81
6930;DHT22;3504;52.616;13.238;2023-04-15T07:05:22;10.68;85.74
6930;DHT22;3504;52.616;13.238;2023-04-15T07:10:22;10.88;86.18
6930;DHT22;3504;52.616;13.238;2023-04-15T07:15:23;10.91;84.71
6930;DHT22;3504;52.616;13.238;2023-04-15T07:20:24;10.95;84.46
6930;DHT22;3504;52.616;13.238;2023-04-15T07:25:25;10.85;84.11
6930;DHT22;3504;52.616;13.238;2023-04-15T07:30:25;10.84;84.14
6930;DHT22;3504;52.616;13.238;2023-04-15T07:35:26;10.81;83.48
6930;DHT22;3504;52.616;13.238;2023-04-15T07:40:27;10.84;84.84
6930;DHT22;3504;52.616;13.238;2023-04-15T07:45:28;10.65;84.38
6930;DHT22;3504;52.616;13.238;2023-04-15T07:50:28;10.64;84.80
6930;DHT22;3504;52.616;13.238;2023-04-15T07:55:29;10.49;84.29
6930;DHT22;3504;52.616;13.238;2023-04-15T08:00:29;10.57;84.49
6930;DHT22;3504;52.616;13.238;2023-04-15T08:05:31;10.63;84.80
6930;DHT22;3504;52.616;13.238;2023-04-15T08:10:32;10.72;83.99
6930;DHT22;3504;52.616;13.238;2023-04-15T08:15:32;10.81;84.03
6930;DHT22;3504;52.616;13.238;2023-04-15T08:20:33;10.85;84.02
6930;DHT22;3504;52.616;13.238;2023-04-15T08:25:33;10.93;83.73
6930;DHT22;3504;52.616;13.238;2023-04-15T08:30:34;10.89;82.95
6930;DHT22;3504;52.616;13.238;2023-04-15T08:35:34;10.92;83.45
6930;DHT22;3504;52.616;13.238;2023-04-15T08:40:42;10.95;83.08
6930;DHT22;3504;52.616;13.238;2023-04-15T08:45:44;10.93;83.22
6930;DHT22;3504;52.616;13.238;2023-04-15T08:50:47;11.05;83.21
6930;DHT22;3504;52.616;13.238;2023-04-15T08:55:51;11.13;83.19
6930;DHT22;3504;52.616;13.238;2023-04-15T09:00:52;11.17;82.65
6930;DHT22;3504;52.616;13.238;2023-04-15T09:05:53;11.19;81.70
6930;DHT22;3504;52.616;13.238;2023-04-15T09:10:54;11.20;82.08
6930;DHT22;3504;52.616;13.238;2023-04-15T09:15:55;11.16;81.29
6930;DHT22;3504;52.616;13.238;2023-04-15T09:21:09;11.15;81.97
6930;DHT22;3504;52.616;13.238;2023-04-15T09:26:10;11.19;82.35
6930;DHT22;3504;52.616;13.238;2023-04-15T09:31:11;11.12;81.53
6930;DHT22;3504;52.616;13.238;2023-04-15T09:36:11;11.12;81.74
6930;DHT22;3504;52.616;13.238;2023-04-15T09:41:18;11.20;81.93
6930;DHT22;3504;52.616;13.238;2023-04-15T09:46:39;11.23;81.18
6930;DHT22;3504;52.616;13.238;2023-04-15T09:51:40;11.35;81.14
6930;DHT22;3504;52.616;13.238;2023-04-15T09:56:41;11.42;81.58
6930;DHT22;3504;52.616;13.238;2023-04-15T10:01:42;11.50;81.28
6930;DHT22;3504;52.616;13.238;2023-04-15T10:06:42;11.42;82.12
6930;DHT22;3504;52.616;13.238;2023-04-15T10:11:44;11.39;82.17
6930;DHT22;3504;52.616;13.238;2023-04-15T10:16:46;11.39;82.60
6930;DHT22;3504;52.616;13.238;2023-04-15T10:21:48;11.42;83.26
6930;DHT22;3504;52.616;13.238;2023-04-15T10:26:51;11.23;83.01
6930;DHT22;3504;52.616;13.238;2023-04-15T10:31:55;11.23;83.70
6930;DHT22;3504;52.616;13.238;2023-04-15T10:37:03;11.29;83.94
6930;DHT22;3504;52.616;13.238;2023-04-15T10:42:14;11.27;83.57
6930;DHT22;3504;52.616;13.238;2023-04-15T10:47:17;11.37;84.14
6930;DHT22;3504;52.616;13.238;2023-04-15T10:52:27;11.39;84.14
6930;DHT22;3504;52.616;13.238;2023-04-15T10:57:34;11.47;84.27
6930;DHT22;3504;52.616;13.238;2023-04-15T11:07:57;11.50;84.27
6930;DHT22;3504;52.616;13.238;2023-04-15T11:13:03;11.48;83.95
6930;DHT22;3504;52.616;13.238;2023-04-15T11:18:19;11.43;84.03
6930;DHT22;3504;52.616;13.238;2023-04-15T11:23:36;11.43;84.60
6930;DHT22;3504;52.616;13.238;2023-04-15T11:28:43;11.50;84.70
6930;DHT22;3504;52.616;13.238;2023-04-15T11:33:59;11.46;84.53
6930;DHT22;3504;52.616;13.238;2023-04-15T11:39:01;11.47;84.97
6930;DHT22;3504;52.616;13.238;2023-04-15T11:44:01;11.48;84.69
6930;DHT22;3504;52.616;13.238;2023-04-15T11:49:02;11.53;85.07
6930;DHT22;3504;52.616;13.238;2023-04-15T11:54:04;11.50;85.27
6930;DHT22;3504;52.616;13.238;2023-04-15T11:59:04;11.48;85.53
6930;DHT22;3504;52.616;13.238;2023-04-15T12:04:13;11.46;85.56
6930;DHT22;3504;52.616;13.238;2023-04-15T12:09:17;11.39;85.84
6930;DHT22;3504;52.616;13.238;2023-04-15T12:14:25;11.37;85.72
6930;DHT22;3504;52.616;13.238;2023-04-15T12:19:39;11.31;85.89
6930;DHT22;3504;52.616;13.238;2023-04-15T12:24:42;11.37;86.08
6930;DHT22;3504;52.616;13.238;2023-04-15T12:29:43;11.26;86.20
6930;DHT22;3504;52.616;13.238;2023-04-15T12:34:50;11.29;86.45
6930;DHT22;3504;52.616;13.238;2023-04-15T12:39:50;11.36;86.58
6930;DHT22;3504;52.616;13.238;2023-04-15T12:44:51;11.37;86.24
6930;DHT22;3504;52.616;13.238;2023-04-15T12:49:52;11.42;86.76
6930;DHT22;3504;52.616;13.238;2023-04-15T12:54:52;11.51;86.56
6930;DHT22;3504;52.616;13.238;2023-04-15T12:59:56;11.61;86.63
6930;DHT22;3504;52.616;13.238;2023-04-15T13:04:56;11.58;86.68
6930;DHT22;3504;52.616;13.238;2023-04-15T13:09:57;11.54;86.33
6930;DHT22;3504;52.616;13.238;2023-04-15T13:14:57;11.58;86.42
6930;DHT22;3504;52.616;13.238;2023-04-15T13:19:58;11.54;86.66
6930;DHT22;3504;52.616;13.238;2023-04-15T13:24:58;11.54;86.77
6930;DHT22;3504;52.616;13.238;2023-04-15T13:29:59;11.39;86.23
6930;DHT22;3504;52.616;13.238;2023-04-15T13:35:00;11.46;87.04
6930;DHT22;3504;52.616;13.238;2023-04-15T13:40:00;11.50;86.82
6930;DHT22;3504;52.616;13.238;2023-04-15T13:45:01;11.44;86.71
6930;DHT22;3504;52.616;13.238;2023-04-15T13:50:02;11.42;86.41
6930;DHT22;3504;52.616;13.238;2023-04-15T13:55:03;11.40;86.54
6930;DHT22;3504;52.616;13.238;2023-04-15T14:00:04;11.29;86.13
6930;DHT22;3504;52.616;13.238;2023-04-15T14:05:07;11.31;87.01
6930;DHT22;3504;52.616;13.238;2023-04-15T14:10:08;11.35;87.04
6930;DHT22;3504;52.616;13.238;2023-04-15T14:15:09;11.35;86.73
6930;DHT22;3504;52.616;13.238;2023-04-15T14:20:10;11.26;86.84
6930;DHT22;3504;52.616;13.238;2023-04-15T14:25:10;11.24;86.77
6930;DHT22;3504;52.616;13.238;2023-04-15T14:30:11;11.20;87.32
6930;DHT22;3504;52.616;13.238;2023-04-15T14:35:12;11.16;87.36
6930;DHT22;3504;52.616;13.238;2023-04-15T14:40:13;11.15;87.27
6930;DHT22;3504;52.616;13.238;2023-04-15T14:45:13;11.10;87.48
6930;DHT22;3504;52.616;13.238;2023-04-15T14:50:14;11.06;87.83
6930;DHT22;3504;52.616;13.238;2023-04-15T14:55:15;11.10;87.94
6930;DHT22;3504;52.616;13.238;2023-04-15T15:00:16;10.96;88.00
6930;DHT22;3504;52.616;13.238;2023-04-15T15:05:16;10.93;88.46
6930;DHT22;3504;52.616;13.238;2023-04-15T15:10:17;11.00;88.50
6930;DHT22;3504;52.616;13.238;2023-04-15T15:15:18;10.97;88.56
6930;DHT22;3504;52.616;13.238;2023-04-15T15:20:18;11.06;88.50
6930;DHT22;3504;52.616;13.238;2023-04-15T15:25:19;11.06;88.44
6930;DHT22;3504;52.616;13.238;2023-04-15T15:30:19;11.05;88.54
6930;DHT22;3504;52.616;13.238;2023-04-15T15:35:20;11.03;88.63
6930;DHT22;3504;52.616;13.238;2023-04-15T15:40:22;11.09;88.67
6930;DHT22;3504;52.616;13.238;2023-04-15T15:45:22;11.09;88.85
6930;DHT22;3504;52.616;13.238;2023-04-15T15:50:23;11.03;88.63
6930;DHT22;3504;52.616;13.238;2023-04-15T15:55:23;10.99;88.74
6930;DHT22;3504;52.616;13.238;2023-04-15T16:00:26;11.00;88.71
6930;DHT22;3504;52.616;13.238;2023-04-15T16:05:27;11.02;88.62
6930;DHT22;3504;52.616;13.238;2023-04-15T16:10:27;11.05;88.77
6930;DHT22;3504;52.616;13.238;2023-04-15T16:15:28;10.97;88.74
6930;DHT22;3504;52.616;13.238;2023-04-15T16:20:28;10.99;88.92
6930;DHT22;3504;52.616;13.238;2023-04-15T16:25:29;10.99;88.74
6930;DHT22;3504;52.616;13.238;2023-04-15T16:30:29;10.95;88.74
6930;DHT22;3504;52.616;13.238;2023-04-15T16:35:30;10.92;88.84
6930;DHT22;3504;52.616;13.238;2023-04-15T16:40:30;10.91;89.03
6930;DHT22;3504;52.616;13.238;2023-04-15T16:45:32;10.91;89.00
6930;DHT22;3504;52.616;13.238;2023-04-15T16:50:32;10.86;89.00
6930;DHT22;3504;52.616;13.238;2023-04-15T16:55:33;10.88;89.14
6930;DHT22;3504;52.616;13.238;2023-04-15T17:00:33;10.93;89.06
6930;DHT22;3504;52.616;13.238;2023-04-15T17:05:36;10.93;88.78
6930;DHT22;3504;52.616;13.238;2023-04-15T17:10:37;10.89;88.74
6930;DHT22;3504;52.616;13.238;2023-04-15T17:15:37;10.85;88.97
6930;DHT22;3504;52.616;13.238;2023-04-15T17:20:38;10.82;89.13
6930;DHT22;3504;52.616;13.238;2023-04-15T17:25:42;10.82;88.92
6930;DHT22;3504;52.616;13.238;2023-04-15T17:30:42;10.78;89.19
6930;DHT22;3504;52.616;13.238;2023-04-15T17:35:43;10.76;89.29
6930;DHT22;3504;52.616;13.238;2023-04-15T17:40:43;10.75;89.24
6930;DHT22;3504;52.616;13.238;2023-04-15T17:45:44;10.74;89.39
6930;DHT22;3504;52.616;13.238;2023-04-15T17:50:46;10.71;89.36
6930;DHT22;3504;52.616;13.238;2023-04-15T17:55:46;10.67;89.72
6930;DHT22;3504;52.616;13.238;2023-04-15T18:00:47;10.65;89.72
6930;DHT22;3504;52.616;13.238;2023-04-15T18:05:48;10.64;89.61
6930;DHT22;3504;52.616;13.238;2023-04-15T18:10:48;10.67;89.65
6930;DHT22;3504;52.616;13.238;2023-04-15T18:15:49;10.65;89.62
6930;DHT22;3504;52.616;13.238;2023-04-15T18:20:50;10.68;89.67
6930;DHT22;3504;52.616;13.238;2023-04-15T18:25:51;10.69;89.50
6930;DHT22;3504;52.616;13.238;2023-04-15T18:30:52;10.67;89.44
6930;DHT22;3504;52.616;13.238;2023-04-15T18:35:53;10.64;89.41
6930;DHT22;3504;52.616;13.238;2023-04-15T18:40:54;10.63;89.62
6930;DHT22;3504;52.616;13.238;2023-04-15T18:45:54;10.57;89.61
6930;DHT22;3504;52.616;13.238;2023-04-15T18:50:55;10.54;89.84
6930;DHT22;3504;52.616;13.238;2023-04-15T18:55:57;10.49;89.74
6930;DHT22;3504;52.616;13.238;2023-04-15T19:01:00;10.51;89.78
6930;DHT22;3504;52.616;13.238;2023-04-15T19:06:01;10.54;89.69
6930;DHT22;3504;52.616;13.238;2023-04-15T19:11:02;10.54;89.53
6930;DHT22;3504;52.616;13.238;2023-04-15T19:16:02;10.54;89.66
6930;DHT22;3504;52.616;13.238;2023-04-15T19:21:03;10.45;89.64
6930;DHT22;3504;52.616;13.238;2023-04-15T19:26:03;10.45;89.88
6930;DHT22;3504;52.616;13.238;2023-04-15T19:31:04;10.44;89.87
6930;DHT22;3504;52.616;13.238;2023-04-15T19:36:06;10.42;89.90
6930;DHT22;3504;52.616;13.238;2023-04-15T19:41:06;10.45;89.79
6930;DHT22;3504;52.616;13.238;2023-04-15T19:46:08;10.46;89.71
6930;DHT22;3504;52.616;13.238;2023-04-15T19:51:12;10.42;89.64
6930;DHT22;3504;52.616;13.238;2023-04-15T19:56:12;10.41;89.89
6930;DHT22;3504;52.616;13.238;2023-04-15T20:01:13;10.41;89.80
6930;DHT22;3504;52.616;13.238;2023-04-15T20:06:14;10.42;89.71
6930;DHT22;3504;52.616;13.238;2023-04-15T20:11:14;10.41;89.85
6930;DHT22;3504;52.616;13.238;2023-04-15T20:16:15;10.34;89.90
6930;DHT22;3504;52.616;13.238;2023-04-15T20:21:16;10.35;89.79
6930;DHT22;3504;52.616;13.238;2023-04-15T20:26:16;10.38;89.77
6930;DHT22;3504;52.616;13.238;2023-04-15T20:31:17;10.37;90.01
6930;DHT22;3504;52.616;13.238;2023-04-15T20:36:18;10.40;89.68
6930;DHT22;3504;52.616;13.238;2023-04-15T20:41:18;10.41;89.83
6930;DHT22;3504;52.616;13.238;2023-04-15T20:46:19;10.40;89.61
6930;DHT22;3504;52.616;13.238;2023-04-15T20:51:20;10.35;89.69
6930;DHT22;3504;52.616;13.238;2023-04-15T20:56:21;10.37;89.68
6930;DHT22;3504;52.616;13.238;2023-04-15T21:01:21;10.38;89.71
6930;DHT22;3504;52.616;13.238;2023-04-15T21:06:22;10.41;89.66
6930;DHT22;3504;52.616;13.238;2023-04-15T21:11:22;10.38;89.74
6930;DHT22;3504;52.616;13.238;2023-04-15T21:16:23;10.37;89.78
6930;DHT22;3504;52.616;13.238;2023-04-15T21:21:23;10.31;89.91
6930;DHT22;3504;52.616;13.238;2023-04-15T21:26:24;10.33;89.91
6930;DHT22;3504;52.616;13.238;2023-04-15T21:31:25;10.34;89.91
6930;DHT22;3504;52.616;13.238;2023-04-15T21:36:25;10.28;89.90
6930;DHT22;3504;52.616;13.238;2023-04-15T21:41:27;10.30;89.84
6930;DHT22;3504;52.616;13.238;2023-04-15T21:46:27;10.28;89.94
6930;DHT22;3504;52.616;13.238;2023-04-15T21:51:28;10.25;90.15
6930;DHT22;3504;52.616;13.238;2023-04-15T21:56:28;10.25;89.96
6930;DHT22;3504;52.616;13.238;2023-04-15T22:01:29;10.28;89.99
6930;DHT22;3504;52.616;13.238;2023-04-15T22:06:30;10.27;89.91
6930;DHT22;3504;52.616;13.238;2023-04-15T22:11:31;10.24;89.96
6930;DHT22;3504;52.616;13.238;2023-04-15T22:16:31;10.27;89.92
6930;DHT22;3504;52.616;13.238;2023-04-15T22:21:32;10.27;89.73
6930;DHT22;3504;52.616;13.238;2023-04-15T22:26:32;10.27;89.81
6930;DHT22;3504;52.616;13.238;2023-04-15T22:31:33;10.28;89.86
6930;DHT22;3504;52.616;13.238;2023-04-15T22:36:33;10.27;89.72
6930;DHT22;3504;52.616;13.238;2023-04-15T22:41:34;10.24;89.85
6930;DHT22;3504;52.616;13.238;2023-04-15T22:46:34;10.24;89.84
6930;DHT22;3504;52.616;13.238;2023-04-15T22:51:35;10.28;89.75
6930;DHT22;3504;52.616;13.238;2023-04-15T22:56:37;10.30;89.74
6930;DHT22;3504;52.616;13.238;2023-04-15T23:01:37;10.30;89.64
6930;DHT22;3504;52.616;13.238;2023-04-15T23:06:38;10.31;89.57
6930;DHT22;3504;52.616;13.238;2023-04-15T23:11:38;10.33;89.77
6930;DHT22;3504;52.616;13.238;2023-04-15T23:16:39;10.34;89.55
6930;DHT22;3504;52.616;13.238;2023-04-15T23:21:39;10.28;89.59
6930;DHT22;3504;52.616;13.238;2023-04-15T23:26:40;10.25;89.65
6930;DHT22;3504;52.616;13.238;2023-04-15T23:31:41;10.25;89.63
6930;DHT22;3504;52.616;13.238;2023-04-15T23:36:41;10.25;89.57
6930;DHT22;3504;52.616;13.238;2023-04-15T23:41:42;10.21;89.85
6930;DHT22;3504;52.616;13.238;2023-04-15T23:46:42;10.20;89.68
6930;DHT22;3504;52.616;13.238;2023-04-15T23:51:43;10.21;89.77
6930;DHT22;3504;52.616;13.238;2023-04-15T23:56:44;10.20;89.74
